createdAt,value
2019-03-30T00:01:07.442Z,105.03
2019-03-30T00:03:37.326Z,81.87
2019-03-30T00:06:07.631Z,81.30
2019-03-30T00:08:37.289Z,87.97
2019-03-30T00:11:06.857Z,79.67
2019-03-30T00:13:36.422Z,79.10
2019-03-30T00:16:05.956Z,78.30
2019-03-30T00:18:35.530Z,76.80
2019-03-30T00:21:05.079Z,78.43
2019-03-30T00:23:34.642Z,76.03
2019-03-30T00:26:04.194Z,75.37
2019-03-30T00:28:33.734Z,73.93
2019-03-30T00:31:03.451Z,79.00
2019-03-30T00:33:32.990Z,83.87
2019-03-30T00:36:02.552Z,94.60
2019-03-30T00:38:32.105Z,97.17
2019-03-30T00:41:02.000Z,92.37
2019-03-30T00:43:31.907Z,87.03
2019-03-30T00:46:01.447Z,90.50
2019-03-30T00:48:31.091Z,93.57
2019-03-30T00:51:00.647Z,90.10
2019-03-30T00:53:30.217Z,93.37
2019-03-30T00:55:59.795Z,94.57
2019-03-30T00:58:29.366Z,94.93
2019-03-30T01:00:59.213Z,116.83
2019-03-30T01:03:28.778Z,101.17
2019-03-30T01:05:58.433Z,115.23
2019-03-30T01:08:28.042Z,110.93
2019-03-30T01:10:57.945Z,122.90
2019-03-30T01:13:27.503Z,115.07
2019-03-30T01:15:57.039Z,114.20
2019-03-30T01:18:26.597Z,119.17
2019-03-30T01:20:56.217Z,114.30
2019-03-30T01:23:25.775Z,111.03
2019-03-30T01:25:55.327Z,114.47
2019-03-30T01:28:25.980Z,119.07
2019-03-30T01:30:55.515Z,112.10
2019-03-30T01:33:25.073Z,119.80
2019-03-30T01:35:54.614Z,108.37
2019-03-30T01:38:24.269Z,121.23
2019-03-30T01:40:53.808Z,124.93
2019-03-30T01:43:23.345Z,124.53
2019-03-30T01:45:52.908Z,123.47
2019-03-30T01:48:22.466Z,124.73
2019-03-30T01:50:53.126Z,114.67
2019-03-30T01:53:22.658Z,112.73
2019-03-30T01:55:52.266Z,131.93
2019-03-30T01:58:21.795Z,117.27
2019-03-30T02:00:51.441Z,110.87
2019-03-30T02:03:20.989Z,99.83
2019-03-30T02:05:50.551Z,111.93
2019-03-30T02:08:20.124Z,120.50
2019-03-30T02:10:49.667Z,112.73
2019-03-30T02:13:19.265Z,113.30
2019-03-30T02:15:49.811Z,118.10
2019-03-30T02:18:19.380Z,109.47
2019-03-30T02:20:48.957Z,111.60
2019-03-30T02:23:18.585Z,111.07
2019-03-30T02:25:48.054Z,116.70
2019-03-30T02:28:17.615Z,134.50
2019-03-30T02:30:47.578Z,105.40
2019-03-30T02:33:19.822Z,105.97
2019-03-30T02:35:50.427Z,114.13
2019-03-30T02:38:19.967Z,104.70
2019-03-30T02:40:49.519Z,111.80
2019-03-30T02:43:19.072Z,114.57
2019-03-30T02:45:48.646Z,125.10
2019-03-30T02:48:18.254Z,120.67
2019-03-30T02:50:50.333Z,105.47
2019-03-30T02:53:19.146Z,108.70
2019-03-30T02:55:48.714Z,103.90
2019-03-30T02:58:18.266Z,102.67
2019-03-30T03:00:47.853Z,121.13
2019-03-30T03:03:17.400Z,107.60
2019-03-30T03:05:47.039Z,116.90
2019-03-30T03:08:16.566Z,115.17
2019-03-30T03:10:46.122Z,111.17
2019-03-30T03:13:15.683Z,122.50
2019-03-30T03:15:45.262Z,118.13
2019-03-30T03:18:14.845Z,112.90
2019-03-30T03:20:44.462Z,108.20
2019-03-30T03:23:14.098Z,113.30
2019-03-30T03:25:43.656Z,107.80
2019-03-30T03:28:14.233Z,114.17
2019-03-30T03:30:44.606Z,115.30
2019-03-30T03:33:14.227Z,103.83
2019-03-30T03:35:43.794Z,106.07
2019-03-30T03:38:13.349Z,110.10
2019-03-30T03:40:42.893Z,123.70
2019-03-30T03:43:14.632Z,121.50
2019-03-30T03:45:44.226Z,140.13
2019-03-30T03:48:13.783Z,147.30
2019-03-30T03:50:44.664Z,110.00
2019-03-30T03:53:15.315Z,106.57
2019-03-30T03:55:44.872Z,101.90
2019-03-30T03:58:15.916Z,104.00
2019-03-30T04:00:45.737Z,102.77
2019-03-30T04:03:17.094Z,118.33
2019-03-30T04:05:47.677Z,98.10
2019-03-30T04:08:17.416Z,117.37
2019-03-30T04:10:47.478Z,108.80
2019-03-30T04:13:17.058Z,145.20
2019-03-30T04:16:05.976Z,104.23
2019-03-30T04:18:35.616Z,114.70
2019-03-30T04:21:05.163Z,108.33
2019-03-30T04:23:34.704Z,97.63
2019-03-30T04:26:04.365Z,114.17
2019-03-30T04:28:34.803Z,99.33
2019-03-30T04:31:04.389Z,102.17
2019-03-30T04:33:33.947Z,104.53
2019-03-30T04:36:03.509Z,104.57
2019-03-30T04:38:33.062Z,110.33
2019-03-30T04:41:02.564Z,107.57
2019-03-30T04:43:32.127Z,114.10
2019-03-30T04:46:01.698Z,106.13
2019-03-30T04:48:31.275Z,111.80
2019-03-30T04:51:00.837Z,109.20
2019-03-30T04:53:30.421Z,108.90
2019-03-30T04:55:59.979Z,105.27
2019-03-30T04:58:29.543Z,102.53
2019-03-30T05:00:59.138Z,104.60
2019-03-30T05:03:28.680Z,108.40
2019-03-30T05:05:58.223Z,114.63
2019-03-30T05:08:27.774Z,105.83
2019-03-30T05:10:57.251Z,95.73
2019-03-30T05:13:26.853Z,93.07
2019-03-30T05:15:56.409Z,93.87
2019-03-30T05:18:25.964Z,91.27
2019-03-30T05:20:55.518Z,91.37
2019-03-30T05:23:25.057Z,92.20
2019-03-30T05:25:54.646Z,94.67
2019-03-30T05:28:24.246Z,102.93
2019-03-30T05:30:53.795Z,92.33
2019-03-30T05:33:23.711Z,99.13
2019-03-30T05:35:53.252Z,102.20
2019-03-30T05:38:22.838Z,102.70
2019-03-30T05:40:52.375Z,94.57
2019-03-30T05:43:22.947Z,99.70
2019-03-30T05:45:52.514Z,104.53
2019-03-30T05:48:22.061Z,105.23
2019-03-30T05:50:51.627Z,102.63
2019-03-30T05:53:21.155Z,104.63
2019-03-30T05:56:03.515Z,106.90
2019-03-30T05:58:33.114Z,111.07
2019-03-30T06:01:02.662Z,112.33
2019-03-30T06:03:32.227Z,116.27
2019-03-30T06:06:01.769Z,123.50
2019-03-30T06:08:31.395Z,121.97
2019-03-30T06:11:00.939Z,121.07
2019-03-30T06:13:30.525Z,114.70
2019-03-30T06:16:00.087Z,117.10
2019-03-30T06:18:29.650Z,116.47
2019-03-30T06:20:59.241Z,123.47
2019-03-30T06:23:28.962Z,114.40
2019-03-30T06:25:58.518Z,116.67
2019-03-30T06:28:28.084Z,119.00
2019-03-30T06:30:57.687Z,117.20
2019-03-30T06:33:27.297Z,112.67
2019-03-30T06:35:56.840Z,121.03
2019-03-30T06:38:26.407Z,127.40
2019-03-30T06:40:55.957Z,104.93
2019-03-30T06:43:26.526Z,105.73
2019-03-30T06:45:56.438Z,131.47
2019-03-30T06:48:25.979Z,108.07
2019-03-30T06:50:55.538Z,97.00
2019-03-30T06:53:25.091Z,91.77
2019-03-30T06:55:54.655Z,89.43
2019-03-30T06:58:24.311Z,76.87
2019-03-30T07:00:53.890Z,76.00
2019-03-30T07:03:23.447Z,81.53
2019-03-30T07:05:53.084Z,63.83
2019-03-30T07:08:22.645Z,79.23
2019-03-30T07:10:52.189Z,77.27
2019-03-30T07:13:21.779Z,78.73
2019-03-30T07:15:51.345Z,77.03
2019-03-30T07:18:20.907Z,74.93
2019-03-30T07:20:50.769Z,74.30
2019-03-30T07:23:20.322Z,72.77
2019-03-30T07:25:49.905Z,66.57
2019-03-30T07:28:19.465Z,63.17
2019-03-30T07:30:49.014Z,57.90
2019-03-30T07:33:18.582Z,58.93
2019-03-30T07:35:49.223Z,52.93
2019-03-30T07:38:18.990Z,44.93
2019-03-30T07:40:48.543Z,44.97
2019-03-30T07:43:18.120Z,46.17
2019-03-30T07:45:47.666Z,46.67
2019-03-30T07:48:17.551Z,40.53
2019-03-30T07:50:47.519Z,45.43
2019-03-30T07:53:26.436Z,44.97
2019-03-30T07:55:50.141Z,49.60
2019-03-30T07:58:19.672Z,50.03
2019-03-30T08:00:49.232Z,49.67
2019-03-30T08:03:18.783Z,53.63
2019-03-30T08:05:48.343Z,54.63
2019-03-30T08:08:17.913Z,55.70
2019-03-30T08:10:47.454Z,58.67
2019-03-30T08:13:17.007Z,67.67
2019-03-30T08:15:46.570Z,65.97
2019-03-30T08:18:16.118Z,67.70
2019-03-30T08:20:45.700Z,70.30
2019-03-30T08:23:15.247Z,65.27
2019-03-30T08:25:44.800Z,63.77
2019-03-30T08:28:27.152Z,62.13
2019-03-30T08:30:56.692Z,61.00
2019-03-30T08:33:26.684Z,54.83
2019-03-30T08:35:56.194Z,59.37
2019-03-30T08:38:25.755Z,56.83
2019-03-30T08:40:55.323Z,55.57
2019-03-30T08:43:24.871Z,52.97
2019-03-30T08:45:54.435Z,53.30
2019-03-30T08:48:23.998Z,60.63
2019-03-30T08:50:53.545Z,56.50
2019-03-30T08:53:23.103Z,55.87
2019-03-30T08:55:52.664Z,54.83
2019-03-30T08:58:22.231Z,51.57
2019-03-30T09:00:51.759Z,53.93
2019-03-30T09:03:21.299Z,52.70
2019-03-30T09:05:50.866Z,50.93
2019-03-30T09:08:20.408Z,48.70
2019-03-30T09:10:50.016Z,44.03
2019-03-30T09:13:19.551Z,46.07
2019-03-30T09:15:49.105Z,45.20
2019-03-30T09:18:18.654Z,44.13
2019-03-30T09:20:48.198Z,44.33
2019-03-30T09:23:17.778Z,44.43
2019-03-30T09:25:47.345Z,44.23
2019-03-30T09:28:16.892Z,44.87
2019-03-30T09:30:46.453Z,43.23
2019-03-30T09:33:16.309Z,42.77
2019-03-30T09:35:46.886Z,42.93
2019-03-30T09:38:16.427Z,40.47
2019-03-30T09:40:45.979Z,40.87
2019-03-30T09:43:15.537Z,39.33
2019-03-30T09:45:46.217Z,38.90
2019-03-30T09:48:15.852Z,36.87
2019-03-30T09:50:45.381Z,38.57
2019-03-30T09:53:14.970Z,38.07
2019-03-30T09:55:44.515Z,37.80
2019-03-30T09:58:14.073Z,34.33
2019-03-30T10:00:43.657Z,35.97
2019-03-30T10:03:13.218Z,33.03
2019-03-30T10:05:42.759Z,32.80
2019-03-30T10:08:12.329Z,32.30
2019-03-30T10:10:41.899Z,31.40
2019-03-30T10:13:11.472Z,31.30
2019-03-30T10:15:41.008Z,30.67
2019-03-30T10:18:10.560Z,28.63
2019-03-30T10:20:40.125Z,28.40
2019-03-30T10:23:09.659Z,26.00
2019-03-30T10:25:39.231Z,26.80
2019-03-30T10:28:08.767Z,25.93
2019-03-30T10:30:38.346Z,26.83
2019-03-30T10:33:07.879Z,27.43
2019-03-30T10:35:37.460Z,25.00
2019-03-30T10:38:07.230Z,25.93
2019-03-30T10:40:36.773Z,25.63
2019-03-30T10:43:06.417Z,25.90
2019-03-30T10:45:35.962Z,26.73
2019-03-30T10:48:05.535Z,27.63
2019-03-30T10:50:35.102Z,26.33
2019-03-30T10:53:04.630Z,26.03
2019-03-30T10:55:34.198Z,26.37
2019-03-30T10:58:03.743Z,28.07
2019-03-30T11:00:37.544Z,24.77
2019-03-30T11:03:07.393Z,27.73
2019-03-30T11:05:36.979Z,25.13
2019-03-30T11:08:06.666Z,25.03
2019-03-30T11:10:36.347Z,27.37
2019-03-30T11:13:05.904Z,29.30
2019-03-30T11:15:35.470Z,25.97
2019-03-30T11:18:05.050Z,24.80
2019-03-30T11:20:34.613Z,26.20
2019-03-30T11:23:04.167Z,25.33
2019-03-30T11:25:33.729Z,26.87
2019-03-30T11:28:03.266Z,26.43
2019-03-30T11:30:32.818Z,26.17
2019-03-30T11:33:02.600Z,25.37
2019-03-30T11:35:32.127Z,25.80
2019-03-30T11:38:02.594Z,24.43
2019-03-30T11:40:32.148Z,25.53
2019-03-30T11:43:01.799Z,25.47
2019-03-30T11:45:31.479Z,25.90
2019-03-30T11:48:01.041Z,25.47
2019-03-30T11:50:30.793Z,26.17
2019-03-30T11:53:00.386Z,25.43
2019-03-30T11:55:29.925Z,25.43
2019-03-30T11:57:59.475Z,23.83
2019-03-30T12:00:29.084Z,25.00
2019-03-30T12:02:58.633Z,24.43
2019-03-30T12:05:28.184Z,24.50
2019-03-30T12:07:57.787Z,25.17
2019-03-30T12:10:27.363Z,24.73
2019-03-30T12:12:56.906Z,25.67
2019-03-30T12:15:26.886Z,25.33
2019-03-30T12:17:56.447Z,24.73
2019-03-30T12:20:26.012Z,23.37
2019-03-30T12:22:55.635Z,24.10
2019-03-30T12:25:35.480Z,25.50
2019-03-30T12:27:56.437Z,26.30
2019-03-30T12:30:25.998Z,25.73
2019-03-30T12:32:55.547Z,25.47
2019-03-30T12:35:25.111Z,26.00
2019-03-30T12:37:54.669Z,25.30
2019-03-30T12:40:24.539Z,24.77
2019-03-30T12:42:54.165Z,25.20
2019-03-30T12:45:23.777Z,24.87
2019-03-30T12:47:53.353Z,26.27
2019-03-30T12:50:22.896Z,25.33
2019-03-30T12:52:52.448Z,25.67
2019-03-30T12:55:22.031Z,25.60
2019-03-30T12:57:51.590Z,25.03
2019-03-30T13:00:21.143Z,25.13
2019-03-30T13:02:50.969Z,26.20
2019-03-30T13:05:20.520Z,23.83
2019-03-30T13:07:50.068Z,24.30
2019-03-30T13:10:19.642Z,24.13
2019-03-30T13:12:49.194Z,24.03
2019-03-30T13:15:18.740Z,22.70
2019-03-30T13:17:48.326Z,23.23
2019-03-30T13:20:18.727Z,24.00
2019-03-30T13:22:48.274Z,24.07
2019-03-30T13:25:17.823Z,23.03
2019-03-30T13:27:47.375Z,23.53
2019-03-30T13:30:17.314Z,22.57
2019-03-30T13:32:46.875Z,22.73
2019-03-30T13:35:16.427Z,24.13
2019-03-30T13:37:46.007Z,24.97
2019-03-30T13:40:15.544Z,22.57
2019-03-30T13:42:45.162Z,22.27
2019-03-30T13:45:14.707Z,22.43
2019-03-30T13:47:44.249Z,22.00
2019-03-30T13:50:14.164Z,21.17
2019-03-30T13:52:44.724Z,20.07
2019-03-30T13:55:14.302Z,19.20
2019-03-30T13:57:44.191Z,19.93
2019-03-30T14:00:13.742Z,20.03
2019-03-30T14:02:44.186Z,21.23
2019-03-30T14:05:13.811Z,21.07
2019-03-30T14:07:43.356Z,21.40
2019-03-30T14:10:12.943Z,22.20
2019-03-30T14:12:42.485Z,20.77
2019-03-30T14:15:12.057Z,20.37
2019-03-30T14:17:41.639Z,20.77
2019-03-30T14:20:11.192Z,19.97
2019-03-30T14:22:40.740Z,22.07
2019-03-30T14:25:10.369Z,19.97
2019-03-30T14:27:39.940Z,19.47
2019-03-30T14:30:10.809Z,19.70
2019-03-30T14:32:40.975Z,18.70
2019-03-30T14:35:10.648Z,20.30
2019-03-30T14:37:40.251Z,17.57
2019-03-30T14:40:09.872Z,17.60
2019-03-30T14:42:39.395Z,24.53
2019-03-30T14:45:10.671Z,15.60
2019-03-30T14:47:40.215Z,15.03
2019-03-30T14:50:09.785Z,14.90
2019-03-30T14:52:39.391Z,16.37
2019-03-30T14:55:08.932Z,14.83
2019-03-30T14:57:39.593Z,14.13
2019-03-30T15:00:12.880Z,12.93
2019-03-30T15:02:42.531Z,12.23
2019-03-30T15:05:12.101Z,12.87
2019-03-30T15:07:41.672Z,11.50
2019-03-30T15:10:12.205Z,10.87
2019-03-30T15:12:41.761Z,9.77
2019-03-30T15:15:11.509Z,10.30
2019-03-30T17:38:17.301Z,24.27
2019-03-30T17:40:46.801Z,22.43
2019-03-30T17:43:16.367Z,25.43
2019-03-30T17:45:45.911Z,28.90
2019-03-30T17:48:15.843Z,25.80
2019-03-30T17:50:45.405Z,20.70
2019-03-30T17:53:14.934Z,17.63
2019-03-30T17:55:45.732Z,18.13
2019-03-30T17:58:15.255Z,22.00
2019-03-30T18:00:45.118Z,24.20
2019-03-30T18:03:14.660Z,26.10
2019-03-30T18:05:44.207Z,42.87
2019-03-30T18:08:13.772Z,49.03
2019-03-30T18:10:43.313Z,49.90
2019-03-30T18:13:14.294Z,37.93
2019-03-30T18:15:43.830Z,39.70
2019-03-30T18:18:13.750Z,48.53
2019-03-30T18:20:43.321Z,35.53
2019-03-30T18:23:12.873Z,48.10
2019-03-30T18:25:42.428Z,58.27
2019-03-30T18:28:26.200Z,94.67
2019-03-30T18:30:43.527Z,95.40
2019-03-30T18:33:13.140Z,67.57
2019-03-30T18:35:43.124Z,65.40
2019-03-30T18:38:13.303Z,68.27
2019-03-30T18:40:42.931Z,72.17
2019-03-30T18:43:13.446Z,82.53
2019-03-30T18:45:43.297Z,107.27
2019-03-30T18:48:15.098Z,70.73
2019-03-30T18:50:45.549Z,84.63
2019-03-30T18:53:15.987Z,46.13
2019-03-30T18:55:45.531Z,37.83
2019-03-30T18:58:15.097Z,33.93
2019-03-30T19:00:44.634Z,33.93
2019-03-30T19:03:14.218Z,31.43
2019-03-30T19:05:44.843Z,31.67
2019-03-30T19:08:15.660Z,32.83
2019-03-30T19:10:45.193Z,32.80
2019-03-30T19:13:15.262Z,37.13
2019-03-30T19:15:44.798Z,39.07
2019-03-30T19:18:14.379Z,36.93
2019-03-30T19:20:43.940Z,38.47
2019-03-30T19:23:14.482Z,38.33
2019-03-30T19:25:44.035Z,39.07
2019-03-30T19:28:13.587Z,37.77
2019-03-30T19:30:43.142Z,39.30
2019-03-30T19:33:13.716Z,39.50
2019-03-30T19:36:02.620Z,38.80
2019-03-30T19:38:32.152Z,40.70
2019-03-30T19:41:01.995Z,44.83
2019-03-30T19:43:32.687Z,584.23
2019-03-30T19:46:02.687Z,353.97
2019-03-30T19:48:32.376Z,69.30
2019-03-30T19:51:01.923Z,81.37
2019-03-30T19:53:31.472Z,56.70
2019-03-30T19:56:01.058Z,57.57
2019-03-30T19:58:30.616Z,45.53
2019-03-30T20:01:00.161Z,43.97
2019-03-30T20:03:29.738Z,50.40
2019-03-30T20:05:59.303Z,96.73
2019-03-30T20:08:28.896Z,74.93
2019-03-30T20:10:58.431Z,54.57
2019-03-30T20:13:28.467Z,45.30
2019-03-30T20:15:58.382Z,45.80
2019-03-30T20:18:27.942Z,41.47
2019-03-30T20:20:57.927Z,45.83
2019-03-30T20:23:27.458Z,44.10
2019-03-30T20:25:57.004Z,44.90
2019-03-30T20:28:26.575Z,82.50
2019-03-30T20:30:56.136Z,75.63
2019-03-30T20:33:25.698Z,60.67
2019-03-30T20:35:55.239Z,56.30
2019-03-30T20:38:24.847Z,50.80
2019-03-30T20:40:54.385Z,47.17
2019-03-30T20:43:23.946Z,45.70
2019-03-30T20:45:53.487Z,44.17
2019-03-30T20:48:23.356Z,45.77
2019-03-30T20:50:52.952Z,42.77
2019-03-30T20:53:22.689Z,44.57
2019-03-30T20:55:52.227Z,44.00
2019-03-30T20:58:21.771Z,44.10
2019-03-30T21:00:51.310Z,43.10
2019-03-30T21:03:20.879Z,43.83
2019-03-30T21:05:50.418Z,44.60
2019-03-30T21:08:19.959Z,45.43
2019-03-30T21:10:49.503Z,43.47
2019-03-30T21:13:19.053Z,43.30
2019-03-30T21:15:48.667Z,42.93
2019-03-30T21:18:18.206Z,42.60
2019-03-30T21:20:47.866Z,42.50
2019-03-30T21:23:17.418Z,45.30
2019-03-30T21:25:47.584Z,83.23
2019-03-30T21:28:18.046Z,47.23
2019-03-30T21:30:47.594Z,41.27
2019-03-30T21:33:17.377Z,39.90
2019-03-30T21:35:46.932Z,41.13
2019-03-30T21:38:17.830Z,39.53
2019-03-30T21:40:47.580Z,40.00
2019-03-30T21:43:19.702Z,42.13
2019-03-30T21:45:48.740Z,41.47
2019-03-30T21:48:18.916Z,41.40
2019-03-30T21:50:48.447Z,40.40
2019-03-30T21:53:18.073Z,41.43
2019-03-30T21:55:47.603Z,42.63
2019-03-30T21:58:17.168Z,43.30
2019-03-30T22:00:46.715Z,43.63
2019-03-30T22:03:16.251Z,45.57
2019-03-30T22:05:45.827Z,46.70
2019-03-30T22:08:17.234Z,45.33
2019-03-30T22:10:46.584Z,49.17
2019-03-30T22:13:16.116Z,47.23
2019-03-30T22:15:45.664Z,50.73
2019-03-30T22:18:15.206Z,49.93
2019-03-30T22:20:44.756Z,49.67
2019-03-30T22:23:14.355Z,49.37
2019-03-30T22:25:43.899Z,49.77
2019-03-30T22:28:13.436Z,51.77
2019-03-30T22:30:43.953Z,49.93
2019-03-30T22:33:13.515Z,48.83
2019-03-30T22:35:43.085Z,48.87
2019-03-30T22:38:12.640Z,46.57
2019-03-30T22:40:42.179Z,46.50
2019-03-30T22:43:12.580Z,50.83
2019-03-30T22:45:42.127Z,48.17
2019-03-30T22:48:11.743Z,48.63
2019-03-30T22:50:41.414Z,47.90
2019-03-30T22:53:11.307Z,48.00
2019-03-30T22:55:40.841Z,48.27
2019-03-30T22:58:10.407Z,49.57
2019-03-30T23:00:41.974Z,49.00
2019-03-30T23:03:13.378Z,46.97
2019-03-30T23:05:42.982Z,50.43
2019-03-30T23:08:12.533Z,52.77
2019-03-30T23:10:42.407Z,53.20
2019-03-30T23:13:11.999Z,53.50
2019-03-30T23:15:41.559Z,55.87
2019-03-30T23:18:11.095Z,52.07
2019-03-30T23:20:40.672Z,50.30
2019-03-30T23:23:10.207Z,52.53
2019-03-30T23:25:39.804Z,52.40
2019-03-30T23:28:09.362Z,53.70
2019-03-30T23:30:53.185Z,52.20
2019-03-30T23:33:10.214Z,54.37
2019-03-30T23:35:39.754Z,50.80
2019-03-30T23:38:09.216Z,59.37
2019-03-30T23:40:38.769Z,65.90
2019-03-30T23:43:10.809Z,56.10
2019-03-30T23:45:45.437Z,54.27
2019-03-30T23:48:27.385Z,51.97
2019-03-30T23:51:14.116Z,55.87
2019-03-30T23:53:55.132Z,55.37
2019-03-30T23:59:38.695Z,62.43
